createdAt,value
2018-12-05T00:02:06.702Z,8.17
2018-12-05T00:04:34.409Z,8.80
2018-12-05T00:07:02.419Z,10.87
2018-12-05T00:09:30.340Z,4.30
2018-12-05T00:11:57.857Z,8.90
2018-12-05T00:14:26.031Z,29.87
2018-12-05T00:16:53.560Z,10.83
2018-12-05T00:19:21.356Z,9.53
2018-12-05T00:21:48.899Z,13.33
2018-12-05T00:24:16.942Z,7.70
2018-12-05T00:26:44.460Z,19.50
2018-12-05T00:29:13.487Z,6.30
2018-12-05T00:31:41.003Z,24.43
2018-12-05T00:34:08.997Z,17.03
2018-12-05T00:36:36.535Z,15.83
2018-12-05T00:39:07.587Z,10.43
2018-12-05T00:41:35.125Z,17.53
2018-12-05T00:44:03.115Z,9.43
2018-12-05T00:46:30.720Z,10.97
2018-12-05T00:48:58.869Z,22.33
2018-12-05T00:51:26.393Z,11.20
2018-12-05T00:53:54.411Z,9.50
2018-12-05T00:56:21.959Z,9.00
2018-12-05T00:58:49.713Z,11.70
2018-12-05T01:01:17.248Z,10.93
2018-12-05T01:03:44.987Z,17.03
2018-12-05T01:06:13.066Z,12.03
2018-12-05T01:08:40.984Z,13.20
2018-12-05T01:11:08.521Z,12.20
2018-12-05T01:13:36.674Z,8.87
2018-12-05T01:16:04.205Z,12.60
2018-12-05T01:18:32.047Z,16.00
2018-12-05T01:20:59.579Z,12.83
2018-12-05T01:23:27.747Z,9.43
2018-12-05T01:25:55.275Z,11.50
2018-12-05T01:28:23.263Z,10.13
2018-12-05T01:30:50.785Z,8.00
2018-12-05T01:33:18.448Z,16.00
2018-12-05T01:35:45.975Z,8.73
2018-12-05T01:38:14.135Z,13.70
2018-12-05T01:40:41.659Z,13.20
2018-12-05T01:43:09.611Z,14.47
2018-12-05T01:45:37.397Z,11.17
2018-12-05T01:48:05.371Z,16.83
2018-12-05T01:50:32.895Z,11.00
2018-12-05T01:53:00.725Z,11.77
2018-12-05T01:55:30.215Z,18.23
2018-12-05T01:57:58.301Z,17.60
2018-12-05T02:00:25.831Z,14.80
2018-12-05T02:02:53.508Z,13.50
2018-12-05T02:05:22.896Z,16.73
2018-12-05T02:07:50.836Z,18.93
2018-12-05T02:10:18.371Z,16.10
2018-12-05T02:12:46.325Z,14.00
2018-12-05T02:15:13.933Z,17.80
2018-12-05T02:17:42.682Z,4.03
2018-12-05T02:20:10.298Z,9.13
2018-12-05T02:22:38.619Z,5.83
2018-12-05T02:25:06.241Z,10.60
2018-12-05T02:27:34.515Z,13.00
2018-12-05T02:30:02.138Z,12.10
2018-12-05T02:32:29.868Z,9.47
2018-12-05T02:34:57.412Z,16.23
2018-12-05T02:37:25.321Z,15.80
2018-12-05T02:39:52.954Z,11.03
2018-12-05T02:42:20.745Z,8.13
2018-12-05T02:44:48.272Z,5.20
2018-12-05T02:47:16.463Z,11.73
2018-12-05T02:49:43.997Z,10.10
2018-12-05T02:52:12.010Z,10.63
2018-12-05T02:54:39.539Z,14.33
2018-12-05T02:57:07.304Z,10.43
2018-12-05T02:59:34.909Z,11.73
2018-12-05T03:02:02.645Z,20.73
2018-12-05T03:04:30.167Z,11.63
2018-12-05T03:06:58.569Z,15.53
2018-12-05T03:09:26.105Z,15.57
2018-12-05T03:11:54.509Z,9.23
2018-12-05T03:14:22.544Z,18.70
2018-12-05T03:16:50.510Z,13.70
2018-12-05T03:19:18.061Z,12.93
2018-12-05T03:21:46.268Z,17.50
2018-12-05T03:24:13.803Z,11.83
2018-12-05T03:26:42.118Z,15.70
2018-12-05T03:29:09.644Z,22.47
2018-12-05T03:31:37.779Z,13.80
2018-12-05T03:34:05.321Z,16.07
2018-12-05T03:36:33.053Z,7.33
2018-12-05T03:39:01.009Z,9.77
2018-12-05T03:41:29.315Z,21.13
2018-12-05T03:43:57.735Z,12.40
2018-12-05T03:46:25.461Z,18.10
2018-12-05T03:48:52.984Z,24.60
2018-12-05T03:51:20.785Z,11.27
2018-12-05T03:53:48.312Z,21.20
2018-12-05T03:56:16.310Z,15.47
2018-12-05T03:58:44.172Z,23.93
2018-12-05T04:01:11.724Z,13.57
2018-12-05T04:03:39.245Z,4.80
2018-12-05T04:06:07.774Z,15.60
2018-12-05T04:08:35.309Z,15.03
2018-12-05T04:11:03.476Z,10.00
2018-12-05T04:13:31.138Z,17.00
2018-12-05T04:15:59.035Z,14.57
2018-12-05T04:18:26.582Z,22.07
2018-12-05T04:20:54.363Z,11.60
2018-12-05T04:23:21.905Z,19.60
2018-12-05T04:25:49.899Z,11.87
2018-12-05T04:28:17.433Z,10.20
2018-12-05T04:30:45.166Z,10.90
2018-12-05T04:33:12.708Z,16.23
2018-12-05T04:35:40.240Z,19.30
2018-12-05T04:38:08.001Z,9.67
2018-12-05T04:40:35.602Z,19.57
2018-12-05T04:43:03.408Z,8.13
2018-12-05T04:45:30.962Z,15.30
2018-12-05T04:47:58.848Z,17.97
2018-12-05T04:50:27.114Z,8.17
2018-12-05T04:52:54.768Z,16.07
2018-12-05T04:55:23.215Z,7.33
2018-12-05T04:57:50.772Z,17.33
2018-12-05T05:00:19.822Z,10.33
2018-12-05T05:02:47.362Z,22.60
2018-12-05T05:05:16.054Z,8.20
2018-12-05T05:07:43.824Z,13.50
2018-12-05T05:10:13.682Z,15.77
2018-12-05T05:12:41.816Z,17.53
2018-12-05T05:15:09.346Z,20.57
2018-12-05T05:17:37.338Z,13.13
2018-12-05T05:20:04.967Z,15.47
2018-12-05T05:22:33.211Z,9.13
2018-12-05T05:25:00.748Z,27.07
2018-12-05T05:27:28.676Z,20.80
2018-12-05T05:29:56.254Z,30.93
2018-12-05T05:32:24.138Z,40.83
2018-12-05T05:34:51.682Z,70.50
2018-12-05T05:37:19.470Z,19.77
2018-12-05T05:39:47.008Z,18.67
2018-12-05T05:42:14.780Z,11.70
2018-12-05T05:44:42.326Z,14.83
2018-12-05T05:47:10.516Z,11.07
2018-12-05T05:49:38.070Z,16.20
2018-12-05T05:52:05.725Z,22.53
2018-12-05T05:54:33.263Z,32.20
2018-12-05T05:57:01.436Z,49.47
2018-12-05T05:59:28.960Z,37.90
2018-12-05T06:01:57.166Z,36.80
2018-12-05T06:04:24.710Z,29.23
2018-12-05T06:06:53.207Z,22.40
2018-12-05T06:09:20.883Z,33.73
2018-12-05T06:11:48.991Z,37.00
2018-12-05T06:14:16.533Z,24.00
2018-12-05T06:16:44.481Z,21.73
2018-12-05T06:19:12.155Z,15.67
2018-12-05T06:21:39.679Z,20.90
2018-12-05T06:24:07.701Z,24.03
2018-12-05T06:26:35.248Z,28.57
2018-12-05T06:29:03.236Z,20.53
2018-12-05T06:31:30.773Z,11.80
2018-12-05T06:33:59.815Z,16.63
2018-12-05T06:36:27.349Z,18.40
2018-12-05T06:38:55.065Z,18.37
2018-12-05T06:41:22.614Z,17.57
2018-12-05T06:43:50.841Z,42.93
2018-12-05T06:46:18.375Z,36.87
2018-12-05T06:48:46.193Z,37.90
2018-12-05T06:51:13.717Z,38.30
2018-12-05T06:53:41.495Z,40.60
2018-12-05T06:56:09.042Z,23.67
2018-12-05T06:58:37.023Z,24.17
2018-12-05T07:01:04.631Z,20.37
2018-12-05T07:03:32.573Z,10.80
2018-12-05T07:06:00.359Z,31.00
2018-12-05T07:08:28.076Z,11.73
2018-12-05T07:10:55.617Z,16.27
2018-12-05T07:13:23.377Z,14.13
2018-12-05T07:15:50.911Z,14.30
2018-12-05T07:18:19.315Z,9.43
2018-12-05T07:20:47.355Z,16.03
2018-12-05T07:23:16.533Z,9.73
2018-12-05T07:25:44.072Z,20.13
2018-12-05T07:28:12.033Z,14.63
2018-12-05T07:30:39.575Z,17.70
2018-12-05T07:33:07.735Z,14.90
2018-12-05T07:35:35.321Z,13.73
2018-12-05T07:38:02.873Z,14.00
2018-12-05T07:40:31.049Z,12.23
2018-12-05T07:42:58.596Z,11.83
2018-12-05T07:45:26.969Z,16.30
2018-12-05T07:47:56.349Z,9.80
2018-12-05T07:50:24.552Z,13.00
2018-12-05T07:52:52.079Z,11.63
2018-12-05T07:55:19.917Z,12.70
2018-12-05T07:57:47.461Z,21.67
2018-12-05T08:00:15.783Z,26.93
2018-12-05T08:02:43.313Z,28.60
2018-12-05T08:05:11.312Z,23.70
2018-12-05T08:07:40.409Z,29.83
2018-12-05T08:10:08.563Z,39.60
2018-12-05T08:12:36.095Z,20.60
2018-12-05T08:15:04.553Z,25.60
2018-12-05T08:17:32.271Z,23.00
2018-12-05T08:20:00.030Z,15.53
2018-12-05T08:22:27.862Z,26.37
2018-12-05T08:24:55.818Z,24.40
2018-12-05T08:27:23.417Z,21.67
2018-12-05T08:29:51.338Z,21.67
2018-12-05T08:32:18.974Z,36.90
2018-12-05T08:34:46.881Z,20.50
2018-12-05T08:37:14.420Z,29.77
2018-12-05T08:39:42.398Z,28.53
2018-12-05T08:42:09.934Z,30.90
2018-12-05T08:44:38.098Z,34.43
2018-12-05T08:47:05.632Z,34.47
2018-12-05T08:49:33.454Z,45.57
2018-12-05T08:52:01.156Z,30.43
2018-12-05T08:54:29.393Z,19.50
2018-12-05T08:56:56.925Z,25.30
2018-12-05T08:59:24.458Z,24.87
2018-12-05T09:01:52.582Z,28.40
2018-12-05T09:04:20.120Z,17.30
2018-12-05T09:06:48.002Z,30.57
2018-12-05T09:09:15.550Z,18.37
2018-12-05T09:11:43.651Z,19.47
2018-12-05T09:14:11.194Z,30.10
2018-12-05T09:16:38.970Z,14.17
2018-12-05T09:19:06.518Z,18.33
2018-12-05T09:21:34.469Z,16.70
2018-12-05T09:24:02.208Z,31.43
2018-12-05T09:26:30.033Z,28.67
2018-12-05T09:28:57.591Z,21.03
2018-12-05T09:31:25.560Z,23.80
2018-12-05T09:33:53.100Z,19.33
2018-12-05T09:36:21.075Z,34.37
2018-12-05T09:38:48.630Z,28.13
2018-12-05T09:41:16.612Z,39.17
2018-12-05T09:43:44.158Z,28.93
2018-12-05T09:46:12.126Z,20.00
2018-12-05T09:48:39.696Z,23.80
2018-12-05T09:51:07.448Z,26.23
2018-12-05T09:53:35.082Z,29.90
2018-12-05T09:56:03.192Z,22.20
2018-12-05T09:58:30.718Z,22.93
2018-12-05T10:00:58.838Z,25.00
2018-12-05T10:03:26.694Z,32.27
2018-12-05T10:05:54.504Z,52.60
2018-12-05T10:08:22.422Z,20.47
2018-12-05T10:10:50.590Z,25.77
2018-12-05T10:13:18.574Z,32.43
2018-12-05T10:15:46.127Z,30.60
2018-12-05T10:18:13.956Z,13.73
2018-12-05T10:20:41.501Z,18.53
2018-12-05T10:23:09.274Z,16.43
2018-12-05T10:25:36.806Z,21.47
2018-12-05T10:28:04.642Z,22.53
2018-12-05T10:30:32.163Z,21.07
2018-12-05T10:33:00.401Z,32.37
2018-12-05T10:35:27.932Z,27.63
2018-12-05T10:37:56.004Z,44.60
2018-12-05T10:40:23.543Z,28.97
2018-12-05T10:42:51.321Z,29.90
2018-12-05T10:45:18.867Z,57.03
2018-12-05T10:47:46.963Z,42.40
2018-12-05T10:50:14.691Z,44.20
2018-12-05T10:52:42.367Z,35.00
2018-12-05T10:55:09.917Z,28.07
2018-12-05T10:57:37.707Z,21.67
2018-12-05T11:00:08.997Z,31.70
2018-12-05T11:02:42.663Z,26.30
2018-12-05T11:05:16.267Z,33.80
2018-12-05T11:07:51.048Z,30.73
2018-12-05T11:10:24.489Z,34.80
2018-12-05T11:12:57.660Z,48.03
2018-12-05T11:15:31.057Z,61.33
2018-12-05T11:18:04.839Z,39.00
2018-12-05T11:20:38.234Z,28.10
2018-12-05T11:23:12.279Z,20.20
2018-12-05T11:25:39.809Z,20.77
2018-12-05T11:28:07.811Z,18.70
2018-12-05T11:30:35.352Z,17.47
2018-12-05T11:33:03.228Z,15.57
2018-12-05T11:35:30.774Z,32.03
2018-12-05T11:37:58.659Z,34.87
2018-12-05T11:40:26.192Z,25.80
2018-12-05T11:42:54.039Z,24.13
2018-12-05T11:45:21.591Z,20.07
2018-12-05T11:47:49.416Z,25.80
2018-12-05T11:50:16.963Z,23.83
2018-12-05T11:52:44.967Z,26.97
2018-12-05T11:55:12.515Z,21.77
2018-12-05T11:57:40.452Z,25.17
2018-12-05T12:00:09.135Z,29.67
2018-12-05T12:02:37.439Z,28.37
2018-12-05T12:05:05.054Z,15.27
2018-12-05T12:07:33.159Z,23.87
2018-12-05T12:10:00.687Z,17.50
2018-12-05T12:12:34.424Z,25.50
2018-12-05T12:15:01.970Z,25.87
2018-12-05T12:17:30.109Z,27.03
2018-12-05T12:19:57.659Z,45.30
2018-12-05T12:22:25.514Z,23.63
2018-12-05T12:24:53.085Z,27.23
2018-12-05T12:27:21.022Z,29.80
2018-12-05T12:29:48.556Z,24.03
2018-12-05T12:32:16.138Z,36.83
2018-12-05T12:34:44.014Z,26.43
2018-12-05T12:37:11.584Z,21.93
2018-12-05T12:39:39.418Z,30.23
2018-12-05T12:42:07.155Z,29.20
2018-12-05T12:44:34.705Z,33.50
2018-12-05T12:47:02.498Z,46.87
2018-12-05T12:49:30.031Z,30.10
2018-12-05T12:51:57.998Z,37.83
2018-12-05T12:54:26.651Z,30.67
2018-12-05T12:56:54.929Z,25.77
2018-12-05T12:59:22.522Z,25.37
2018-12-05T13:01:50.591Z,28.27
2018-12-05T13:04:18.283Z,18.30
2018-12-05T13:06:46.261Z,34.57
2018-12-05T13:09:14.262Z,30.40
2018-12-05T13:11:41.795Z,23.03
2018-12-05T13:14:09.931Z,18.67
2018-12-05T13:16:37.471Z,22.53
2018-12-05T13:19:05.282Z,32.30
2018-12-05T13:21:32.844Z,23.50
2018-12-05T13:24:00.818Z,21.67
2018-12-05T13:26:28.384Z,17.90
2018-12-05T13:28:56.338Z,18.07
2018-12-05T13:31:23.888Z,17.43
2018-12-05T13:33:51.664Z,19.00
2018-12-05T13:36:19.280Z,16.90
2018-12-05T13:38:47.568Z,27.63
2018-12-05T13:41:15.106Z,20.70
2018-12-05T13:43:42.923Z,22.57
2018-12-05T13:46:10.479Z,13.93
2018-12-05T13:48:38.281Z,24.10
2018-12-05T13:51:07.137Z,20.60
2018-12-05T13:53:35.183Z,19.97
2018-12-05T13:56:03.004Z,18.80
2018-12-05T13:58:31.164Z,22.00
2018-12-05T14:00:58.698Z,19.57
2018-12-05T14:03:26.514Z,23.50
2018-12-05T14:05:54.487Z,33.30
2018-12-05T14:08:22.420Z,21.17
2018-12-05T14:10:49.968Z,14.97
2018-12-05T14:13:17.746Z,22.77
2018-12-05T14:15:45.902Z,32.87
2018-12-05T14:18:13.893Z,31.40
2018-12-05T14:20:41.434Z,33.77
2018-12-05T14:23:08.978Z,16.37
2018-12-05T14:25:37.025Z,20.23
2018-12-05T14:28:04.576Z,14.00
2018-12-05T14:30:32.617Z,15.63
2018-12-05T14:33:00.636Z,12.90
2018-12-05T14:35:28.186Z,18.87
2018-12-05T14:37:56.165Z,10.30
2018-12-05T14:40:23.710Z,24.53
2018-12-05T14:42:51.938Z,10.20
2018-12-05T14:45:19.467Z,14.00
2018-12-05T14:47:47.292Z,18.33
2018-12-05T14:50:14.843Z,26.90
2018-12-05T14:52:42.823Z,20.80
2018-12-05T14:55:10.359Z,17.97
2018-12-05T14:57:38.257Z,17.07
2018-12-05T15:00:07.957Z,36.50
2018-12-05T15:02:35.887Z,32.30
2018-12-05T15:05:04.433Z,31.03
2018-12-05T15:07:32.657Z,25.30
2018-12-05T15:10:00.222Z,31.17
2018-12-05T15:12:28.766Z,21.70
2018-12-05T15:14:56.358Z,24.57
2018-12-05T15:17:24.118Z,17.00
2018-12-05T15:19:51.680Z,23.87
2018-12-05T15:22:19.440Z,32.50
2018-12-05T15:24:46.985Z,22.67
2018-12-05T15:27:16.198Z,25.90
2018-12-05T15:29:43.826Z,29.20
2018-12-05T15:32:11.733Z,28.53
2018-12-05T15:34:40.788Z,11.90
2018-12-05T15:37:08.829Z,21.60
2018-12-05T15:39:36.398Z,12.67
2018-12-05T15:42:05.450Z,15.63
2018-12-05T15:44:33.002Z,9.30
2018-12-05T15:47:00.771Z,13.30
2018-12-05T15:49:29.025Z,6.93
2018-12-05T15:51:57.142Z,7.37
2018-12-05T15:54:24.664Z,4.63
2018-12-05T15:56:52.605Z,10.40
2018-12-05T15:59:20.266Z,12.73
2018-12-05T16:01:48.172Z,12.20
2018-12-05T16:04:15.713Z,11.53
2018-12-05T16:06:44.108Z,13.67
2018-12-05T16:09:11.659Z,9.63
2018-12-05T16:11:39.838Z,13.50
2018-12-05T16:14:07.414Z,5.70
2018-12-05T16:16:35.207Z,10.20
2018-12-05T16:19:02.756Z,17.90
2018-12-05T16:21:30.506Z,14.30
2018-12-05T16:23:58.317Z,11.17
2018-12-05T16:26:26.508Z,9.80
2018-12-05T16:28:54.054Z,11.73
2018-12-05T16:31:22.120Z,12.83
2018-12-05T16:33:49.716Z,9.37
2018-12-05T16:36:17.580Z,7.50
2018-12-05T16:38:45.330Z,12.10
2018-12-05T16:41:12.880Z,13.50
2018-12-05T16:43:40.776Z,15.53
2018-12-05T16:46:08.852Z,12.73
2018-12-05T16:48:36.393Z,17.27
2018-12-05T16:51:03.934Z,9.67
2018-12-05T16:53:31.835Z,18.10
2018-12-05T16:55:59.379Z,17.43
2018-12-05T16:58:27.363Z,16.77
2018-12-05T17:00:54.908Z,13.77
2018-12-05T17:03:22.895Z,12.73
2018-12-05T17:05:50.496Z,8.23
2018-12-05T17:08:19.066Z,16.53
2018-12-05T17:10:46.614Z,15.43
2018-12-05T17:13:14.432Z,13.53
2018-12-05T17:15:41.992Z,10.00
2018-12-05T17:18:09.804Z,8.40
2018-12-05T17:20:37.339Z,11.30
2018-12-05T17:23:05.112Z,23.37
2018-12-05T17:25:32.642Z,17.27
2018-12-05T17:28:00.526Z,41.87
2018-12-05T17:30:28.160Z,21.40
2018-12-05T17:32:55.967Z,21.70
2018-12-05T17:35:23.684Z,14.97
2018-12-05T17:37:51.385Z,10.70
2018-12-05T17:40:18.923Z,15.73
2018-12-05T17:42:46.888Z,13.90
2018-12-05T17:45:14.425Z,17.83
2018-12-05T17:47:43.300Z,14.70
2018-12-05T17:50:11.116Z,16.40
2018-12-05T17:52:38.842Z,35.43
2018-12-05T17:55:06.470Z,26.97
2018-12-05T17:57:34.418Z,38.70
2018-12-05T18:00:02.186Z,110.63
2018-12-05T18:02:30.324Z,92.00
2018-12-05T18:04:58.085Z,49.90
2018-12-05T18:07:25.635Z,76.03
2018-12-05T18:09:53.869Z,131.93
2018-12-05T18:12:21.411Z,80.70
2018-12-05T18:14:49.589Z,64.50
2018-12-05T18:17:17.130Z,93.00
2018-12-05T18:19:45.875Z,86.60
2018-12-05T18:22:13.430Z,45.87
2018-12-05T18:24:41.263Z,32.93
2018-12-05T18:27:08.839Z,30.17
2018-12-05T18:29:36.815Z,26.13
2018-12-05T18:32:04.433Z,28.70
2018-12-05T18:34:32.185Z,19.67
2018-12-05T18:36:59.734Z,23.57
2018-12-05T18:39:27.453Z,20.13
2018-12-05T18:41:54.992Z,19.07
2018-12-05T18:44:22.756Z,31.00
2018-12-05T18:46:50.318Z,14.97
2018-12-05T18:49:18.063Z,28.43
2018-12-05T18:51:45.603Z,18.50
2018-12-05T18:54:13.579Z,25.90
2018-12-05T18:56:41.147Z,41.67
2018-12-05T18:59:08.956Z,28.50
2018-12-05T19:01:36.526Z,24.00
2018-12-05T19:04:04.365Z,25.73
2018-12-05T19:06:32.554Z,23.23
2018-12-05T19:09:00.158Z,23.77
2018-12-05T19:11:28.080Z,19.77
2018-12-05T19:14:01.565Z,19.37
2018-12-05T19:16:29.538Z,15.43
2018-12-05T19:18:57.910Z,21.83
2018-12-05T19:21:25.570Z,19.50
2018-12-05T19:23:53.541Z,19.40
2018-12-05T19:26:21.449Z,20.77
2018-12-05T19:28:49.003Z,24.23
2018-12-05T19:31:19.535Z,25.77
2018-12-05T19:33:46.516Z,23.10
2018-12-05T19:36:14.474Z,21.90
2018-12-05T19:38:42.014Z,21.73
2018-12-05T19:41:09.840Z,32.33
2018-12-05T19:43:37.388Z,29.17
2018-12-05T19:46:05.384Z,34.27
2018-12-05T19:48:32.990Z,32.37
2018-12-05T19:51:00.892Z,27.20
2018-12-05T19:53:28.464Z,32.50
2018-12-05T19:55:56.633Z,35.57
2018-12-05T19:58:24.186Z,30.77
2018-12-05T20:00:52.651Z,22.27
2018-12-05T20:03:20.646Z,26.47
2018-12-05T20:05:48.196Z,31.23
2018-12-05T20:08:15.974Z,30.57
2018-12-05T20:10:43.513Z,24.13
2018-12-05T20:13:11.656Z,26.50
2018-12-05T20:15:39.213Z,27.53
2018-12-05T20:18:07.022Z,26.57
2018-12-05T20:20:34.582Z,26.23
2018-12-05T20:23:02.753Z,26.03
2018-12-05T20:25:30.307Z,23.17
2018-12-05T20:27:58.946Z,30.77
2018-12-05T20:30:26.716Z,20.80
2018-12-05T20:32:54.624Z,21.33
2018-12-05T20:35:22.496Z,31.20
2018-12-05T20:37:50.052Z,37.90
2018-12-05T20:40:18.020Z,26.13
2018-12-05T20:42:45.914Z,21.87
2018-12-05T20:45:13.962Z,23.90
2018-12-05T20:47:41.507Z,25.47
2018-12-05T20:50:09.126Z,29.87
2018-12-05T20:52:37.166Z,26.43
2018-12-05T20:55:04.900Z,25.37
2018-12-05T20:57:32.478Z,24.33
2018-12-05T21:00:00.139Z,23.53
2018-12-05T21:02:27.677Z,38.10
2018-12-05T21:04:56.024Z,24.70
2018-12-05T21:07:23.965Z,30.07
2018-12-05T21:09:51.525Z,34.63
2018-12-05T21:12:20.734Z,23.43
2018-12-05T21:14:48.261Z,25.70
2018-12-05T21:17:16.251Z,27.97
2018-12-05T21:19:44.392Z,26.77
2018-12-05T21:22:11.940Z,27.30
2018-12-05T21:24:39.817Z,23.87
2018-12-05T21:27:09.271Z,22.73
2018-12-05T21:29:36.981Z,29.87
2018-12-05T21:32:04.512Z,22.43
2018-12-05T21:34:32.923Z,25.20
2018-12-05T21:37:00.489Z,32.10
2018-12-05T21:39:58.778Z,30.10
2018-12-05T21:42:26.410Z,33.80
2018-12-05T21:44:54.644Z,24.83
2018-12-05T21:47:22.174Z,32.33
2018-12-05T21:49:49.891Z,29.77
2018-12-05T21:52:17.668Z,28.10
2018-12-05T21:54:45.208Z,27.50
2018-12-05T21:57:13.059Z,21.83
2018-12-05T21:59:41.046Z,27.80
2018-12-05T22:02:09.111Z,30.93
2018-12-05T22:04:37.019Z,35.20
2018-12-05T22:07:04.554Z,39.53
2018-12-05T22:09:32.714Z,34.80
2018-12-05T22:12:00.253Z,25.60
2018-12-05T22:14:28.183Z,24.30
2018-12-05T22:16:55.774Z,38.77
2018-12-05T22:19:24.012Z,41.87
2018-12-05T22:21:51.537Z,21.20
2018-12-05T22:24:19.338Z,29.23
2018-12-05T22:26:46.894Z,22.13
2018-12-05T22:29:14.879Z,28.97
2018-12-05T22:31:42.419Z,27.00
2018-12-05T22:34:10.623Z,30.23
2018-12-05T22:36:38.157Z,26.87
2018-12-05T22:39:07.175Z,21.97
2018-12-05T22:41:34.734Z,43.27
2018-12-05T22:44:02.684Z,22.47
2018-12-05T22:46:30.233Z,28.37
2018-12-05T22:48:58.005Z,29.37
2018-12-05T22:51:25.559Z,24.37
2018-12-05T22:53:53.340Z,30.13
2018-12-05T22:56:21.040Z,30.70
2018-12-05T22:58:48.864Z,22.47
2018-12-05T23:01:16.416Z,34.77
2018-12-05T23:03:44.985Z,32.63
2018-12-05T23:06:12.543Z,28.33
2018-12-05T23:08:40.620Z,32.27
2018-12-05T23:11:08.164Z,22.73
2018-12-05T23:13:37.460Z,31.77
2018-12-05T23:16:05.234Z,24.43
2018-12-05T23:18:34.464Z,24.13
2018-12-05T23:21:01.997Z,26.07
2018-12-05T23:23:29.776Z,29.07
2018-12-05T23:25:57.330Z,27.00
2018-12-05T23:28:25.107Z,25.33
2018-12-05T23:30:52.674Z,26.67
2018-12-05T23:33:21.171Z,26.13
2018-12-05T23:35:48.930Z,28.70
2018-12-05T23:38:17.418Z,21.67
2018-12-05T23:40:45.239Z,20.27
2018-12-05T23:43:12.780Z,29.63
2018-12-05T23:45:40.353Z,30.97
2018-12-05T23:48:08.085Z,27.90
2018-12-05T23:50:35.905Z,22.93
2018-12-05T23:53:03.517Z,23.07
2018-12-05T23:55:31.385Z,34.97
2018-12-05T23:58:00.679Z,19.87
